createdAt,value
2019-05-22T00:05:26.176Z,99.90
2019-05-22T00:10:34.904Z,99.90
2019-05-22T00:15:40.060Z,99.90
2019-05-22T00:20:45.285Z,99.90
2019-05-22T00:25:49.854Z,99.90
2019-05-22T00:30:55.469Z,99.90
2019-05-22T00:36:02.125Z,99.90
2019-05-22T00:41:07.793Z,99.90
2019-05-22T00:46:16.962Z,99.90
2019-05-22T00:51:45.620Z,99.90
2019-05-22T00:57:15.695Z,99.90
2019-05-22T01:02:26.822Z,99.90
2019-05-22T01:07:40.151Z,99.90
2019-05-22T01:12:47.563Z,99.90
2019-05-22T01:17:54.320Z,99.90
2019-05-22T01:23:02.731Z,99.90
2019-05-22T01:28:07.119Z,99.90
2019-05-22T01:33:16.499Z,99.90
2019-05-22T01:38:23.024Z,99.90
2019-05-22T01:43:29.802Z,99.90
2019-05-22T01:48:37.443Z,99.90
2019-05-22T01:53:43.701Z,99.90
2019-05-22T01:58:49.876Z,99.90
2019-05-22T02:03:58.265Z,99.90
2019-05-22T02:09:23.816Z,99.90
2019-05-22T02:14:30.325Z,99.90
2019-05-22T02:19:35.417Z,99.90
2019-05-22T02:24:40.451Z,99.90
2019-05-22T02:29:47.564Z,99.90
2019-05-22T02:34:52.195Z,99.90
2019-05-22T02:39:57.401Z,99.90
2019-05-22T02:45:03.694Z,99.90
2019-05-22T02:50:08.877Z,99.90
2019-05-22T02:55:13.976Z,99.90
2019-05-22T03:00:20.311Z,99.90
2019-05-22T03:05:25.277Z,99.90
2019-05-22T03:10:31.125Z,99.90
2019-05-22T03:15:35.569Z,99.90
2019-05-22T03:20:41.744Z,99.90
2019-05-22T03:25:46.457Z,99.90
2019-05-22T03:30:53.046Z,99.90
2019-05-22T03:36:10.658Z,99.90
2019-05-22T03:41:15.460Z,99.90
2019-05-22T03:46:34.215Z,99.90
2019-05-22T03:51:38.944Z,99.90
2019-05-22T03:56:43.822Z,99.90
2019-05-22T04:01:49.001Z,99.90
2019-05-22T04:06:54.395Z,99.90
2019-05-22T04:11:58.999Z,99.90
2019-05-22T04:17:03.924Z,99.90
2019-05-22T04:22:09.792Z,99.90
2019-05-22T04:27:16.072Z,99.90
2019-05-22T04:32:30.618Z,99.90
2019-05-22T04:37:35.704Z,99.90
2019-05-22T04:42:40.908Z,99.90
2019-05-22T04:47:56.621Z,99.90
2019-05-22T04:53:02.005Z,99.90
2019-05-22T04:58:08.374Z,99.90
2019-05-22T05:03:12.957Z,99.90
2019-05-22T05:08:18.028Z,99.90
2019-05-22T05:13:27.134Z,99.90
2019-05-22T05:18:31.578Z,99.90
2019-05-22T05:23:35.896Z,99.90
2019-05-22T05:28:40.455Z,99.90
2019-05-22T05:33:55.411Z,99.90
2019-05-22T05:39:00.081Z,99.90
2019-05-22T05:44:05.629Z,99.90
2019-05-22T05:49:09.979Z,99.90
2019-05-22T05:54:15.446Z,99.90
2019-05-22T05:59:21.811Z,99.90
2019-05-22T06:04:35.173Z,99.90
2019-05-22T06:09:39.246Z,99.90
2019-05-22T06:14:43.583Z,99.90
2019-05-22T06:19:50.814Z,99.90
2019-05-22T06:25:02.327Z,99.90
2019-05-22T06:30:13.328Z,99.90
2019-05-22T06:35:21.877Z,99.90
2019-05-22T06:40:28.157Z,99.60
2019-05-22T06:45:35.532Z,99.00
2019-05-22T06:50:38.759Z,99.40
2019-05-22T06:55:43.139Z,99.40
2019-05-22T07:00:47.941Z,99.10
2019-05-22T07:05:53.241Z,99.20
2019-05-22T07:10:57.862Z,98.80
2019-05-22T07:16:03.719Z,99.90
2019-05-22T07:21:08.515Z,99.90
2019-05-22T07:26:12.803Z,99.90
2019-05-22T07:31:17.387Z,99.90
2019-05-22T07:36:24.696Z,99.90
2019-05-22T07:41:29.168Z,99.90
2019-05-22T07:46:33.679Z,99.90
2019-05-22T07:51:53.372Z,99.90
2019-05-22T07:56:45.986Z,99.90
2019-05-22T08:01:50.900Z,99.40
2019-05-22T08:06:55.562Z,98.70
2019-05-22T08:12:00.175Z,97.40
2019-05-22T08:17:06.111Z,95.90
2019-05-22T08:22:10.405Z,95.50
2019-05-22T08:27:16.429Z,94.90
2019-05-22T08:32:22.678Z,95.70
2019-05-22T08:37:31.372Z,92.30
2019-05-22T08:42:35.912Z,93.80
2019-05-22T08:47:40.335Z,94.00
2019-05-22T08:52:45.548Z,91.50
2019-05-22T08:57:51.911Z,92.00
2019-05-22T09:02:56.776Z,91.10
2019-05-22T09:08:01.142Z,91.50
2019-05-22T09:13:05.952Z,93.20
2019-05-22T09:18:11.354Z,93.30
2019-05-22T09:23:16.459Z,93.00
2019-05-22T09:28:21.259Z,92.10
2019-05-22T09:33:25.666Z,93.20
2019-05-22T09:38:30.430Z,91.90
2019-05-22T09:43:34.833Z,90.60
2019-05-22T09:48:39.803Z,85.60
2019-05-22T09:53:44.629Z,90.10
2019-05-22T09:58:49.357Z,83.90
2019-05-22T10:03:54.003Z,83.00
2019-05-22T10:08:58.828Z,85.70
2019-05-22T10:14:05.207Z,86.00
2019-05-22T10:19:09.667Z,83.20
2019-05-22T10:24:14.975Z,78.70
2019-05-22T10:29:19.821Z,74.70
2019-05-22T10:34:24.728Z,79.60
2019-05-22T10:39:30.751Z,72.90
2019-05-22T10:44:35.113Z,72.00
2019-05-22T10:49:39.490Z,70.80
2019-05-22T10:54:44.044Z,65.70
2019-05-22T10:59:49.871Z,64.10
2019-05-22T11:04:54.689Z,69.70
2019-05-22T11:09:59.160Z,66.60
2019-05-22T11:15:04.477Z,63.00
2019-05-22T11:20:11.185Z,57.50
2019-05-22T11:25:17.621Z,56.50
2019-05-22T11:30:22.562Z,55.50
2019-05-22T11:35:28.823Z,53.60
2019-05-22T11:40:33.872Z,54.70
2019-05-22T11:45:38.539Z,52.20
2019-05-22T11:50:44.040Z,52.40
2019-05-22T11:55:48.763Z,53.30
2019-05-22T12:00:53.269Z,51.60
2019-05-22T12:05:58.100Z,49.10
2019-05-22T12:11:02.860Z,48.00
2019-05-22T12:16:08.591Z,47.50
2019-05-22T12:21:12.979Z,47.00
2019-05-22T12:26:17.518Z,47.90
2019-05-22T12:31:22.758Z,47.60
2019-05-22T12:36:29.446Z,48.80
2019-05-22T12:41:34.601Z,49.00
2019-05-22T12:46:39.957Z,47.40
2019-05-22T12:51:46.256Z,48.00
2019-05-22T12:56:51.534Z,44.70
2019-05-22T13:01:58.179Z,44.70
2019-05-22T13:07:04.695Z,46.80
2019-05-22T13:12:12.765Z,46.30
2019-05-22T13:17:17.214Z,44.90
2019-05-22T13:22:26.311Z,45.90
2019-05-22T13:27:32.308Z,45.00
2019-05-22T13:32:36.691Z,44.20
2019-05-22T13:37:41.662Z,43.50
2019-05-22T13:42:46.271Z,43.30
2019-05-22T13:47:50.576Z,43.70
2019-05-22T13:52:56.389Z,45.40
2019-05-22T13:58:01.999Z,43.80
2019-05-22T14:03:07.077Z,42.70
2019-05-22T14:08:12.126Z,42.50
2019-05-22T14:13:22.019Z,42.20
2019-05-22T14:18:26.646Z,40.90
2019-05-22T14:23:33.049Z,41.00
2019-05-22T14:28:37.852Z,42.70
2019-05-22T14:33:42.187Z,40.60
2019-05-22T14:38:46.961Z,40.60
2019-05-22T14:43:51.357Z,41.20
2019-05-22T14:48:55.762Z,42.00
2019-05-22T14:54:03.644Z,42.50
2019-05-22T14:59:08.153Z,41.70
2019-05-22T15:04:14.070Z,41.40
2019-05-22T15:09:18.635Z,42.90
2019-05-22T15:14:23.044Z,43.50
2019-05-22T15:19:27.398Z,41.90
2019-05-22T15:24:32.140Z,40.80
2019-05-22T15:29:36.517Z,42.70
2019-05-22T15:34:41.846Z,42.70
2019-05-22T15:39:47.062Z,42.70
2019-05-22T15:44:51.549Z,42.90
2019-05-22T15:49:56.701Z,42.40
2019-05-22T15:55:02.752Z,41.90
2019-05-22T16:00:10.648Z,42.30
2019-05-22T16:05:18.265Z,41.70
2019-05-22T16:10:25.499Z,41.80
2019-05-22T16:15:33.624Z,40.70
2019-05-22T16:20:40.133Z,40.20
2019-05-22T16:25:45.315Z,37.70
2019-05-22T16:30:50.057Z,39.60
2019-05-22T16:35:54.708Z,39.10
2019-05-22T16:40:59.899Z,38.30
2019-05-22T16:46:04.999Z,39.00
2019-05-22T16:51:11.820Z,39.90
2019-05-22T16:56:17.300Z,39.80
2019-05-22T17:01:23.800Z,38.50
2019-05-22T17:06:28.255Z,39.40
2019-05-22T17:11:32.860Z,40.60
2019-05-22T17:16:41.263Z,40.50
2019-05-22T17:21:47.043Z,41.00
2019-05-22T17:26:53.613Z,41.40
2019-05-22T17:31:58.201Z,42.00
2019-05-22T17:37:08.187Z,42.50
2019-05-22T17:42:16.232Z,42.00
2019-05-22T17:47:23.952Z,42.10
2019-05-22T17:52:32.657Z,42.70
2019-05-22T17:57:39.562Z,42.90
2019-05-22T18:02:47.126Z,42.50
2019-05-22T18:07:51.797Z,43.10
2019-05-22T18:12:57.320Z,42.90
2019-05-22T18:18:02.032Z,43.80
2019-05-22T18:23:06.709Z,43.60
2019-05-22T18:28:12.439Z,44.10
2019-05-22T18:33:17.171Z,44.70
2019-05-22T18:38:21.711Z,45.40
2019-05-22T18:43:28.609Z,45.30
2019-05-22T18:48:33.282Z,45.40
2019-05-22T18:53:37.901Z,45.80
2019-05-22T18:58:43.143Z,45.90
2019-05-22T19:03:47.558Z,46.60
2019-05-22T19:08:52.423Z,46.90
2019-05-22T19:13:56.982Z,47.30
2019-05-22T19:19:01.738Z,47.80
2019-05-22T19:24:06.196Z,47.70
2019-05-22T19:29:10.928Z,48.30
2019-05-22T19:34:15.283Z,48.40
2019-05-22T19:39:20.070Z,49.00
2019-05-22T19:44:24.474Z,48.60
2019-05-22T19:49:29.490Z,48.80
2019-05-22T19:54:41.364Z,49.10
2019-05-22T19:59:45.718Z,49.60
2019-05-22T20:04:51.065Z,49.60
2019-05-22T20:09:55.261Z,50.10
2019-05-22T20:14:59.580Z,50.40
2019-05-22T20:20:05.968Z,50.70
2019-05-22T20:25:11.178Z,51.10
2019-05-22T20:30:18.031Z,51.00
2019-05-22T20:35:22.391Z,51.60
2019-05-22T20:40:27.633Z,52.00
2019-05-22T20:45:33.316Z,52.20
2019-05-22T20:50:38.069Z,52.20
2019-05-22T20:55:44.692Z,52.60
2019-05-22T21:00:51.455Z,53.00
2019-05-22T21:05:56.722Z,53.40
2019-05-22T21:11:02.925Z,54.00
2019-05-22T21:16:09.413Z,54.40
2019-05-22T21:21:15.305Z,54.50
2019-05-22T21:26:20.664Z,54.70
2019-05-22T21:31:25.643Z,54.70
2019-05-22T21:36:32.035Z,54.30
2019-05-22T21:41:36.569Z,54.50
2019-05-22T21:46:41.430Z,54.30
2019-05-22T21:51:45.716Z,54.20
2019-05-22T21:56:50.979Z,54.80
2019-05-22T22:02:09.357Z,54.90
2019-05-22T22:07:13.856Z,54.40
2019-05-22T22:12:22.364Z,54.20
2019-05-22T22:17:28.250Z,54.90
2019-05-22T22:22:32.871Z,55.40
2019-05-22T22:27:38.612Z,55.70
2019-05-22T22:32:43.352Z,56.10
2019-05-22T22:37:47.979Z,55.90
2019-05-22T22:42:54.046Z,56.40
2019-05-22T22:48:00.287Z,56.70
2019-05-22T22:53:08.028Z,57.10
2019-05-22T23:03:24.639Z,57.10
2019-05-22T23:08:32.017Z,57.40
2019-05-22T23:13:37.299Z,58.30
2019-05-22T23:19:25.606Z,59.40
2019-05-22T23:24:35.320Z,60.50
2019-05-22T23:29:40.585Z,61.50
2019-05-22T23:34:47.386Z,63.20
2019-05-22T23:39:56.987Z,66.70
2019-05-22T23:45:04.882Z,68.30
2019-05-22T23:50:10.516Z,69.20
2019-05-22T23:55:16.031Z,69.90
